Time;durP1;ratioP1;P1;durP2;ratioP2;P2;SDS_P1;SDS_P2;PMS_P1;PMS_P2;Temp;Humidity;BMP_temperature;BMP_pressure;BME280_temperature;BME280_humidity;BME280_pressure;Samples;Min_cycle;Max_cycle;Signal;HPM_P1;HPM_P2
2022/06/22 00:01:51;;;;;;;;;;;20.20;83.80;;;;;;5034647;28;20252;-49
2022/06/22 00:04:44;;;;;;;;;;;20.00;85.30;;;;;;5034266;28;19940;-50
2022/06/22 00:07:33;;;;;;;;;;;20.00;86.20;;;;;;5034694;28;19916;-48
2022/06/22 00:10:20;;;;;;;;;;;19.90;86.50;;;;;;5040183;28;19919;-52
2022/06/22 00:13:13;;;;;;;;;;;19.80;87.00;;;;;;5042001;28;19931;-53
2022/06/22 00:15:57;;;;;;;;;;;19.80;87.80;;;;;;5040640;28;19962;-51
2022/06/22 00:18:46;;;;;;;;;;;19.80;88.30;;;;;;5036994;28;20445;-49
2022/06/22 00:21:33;;;;;;;;;;;19.80;88.90;;;;;;5014548;28;20275;-47
2022/06/22 00:24:23;;;;;;;;;;;19.80;89.50;;;;;;5017092;28;19924;-48
2022/06/22 00:27:07;;;;;;;;;;;19.70;89.80;;;;;;5031996;28;19916;-52
2022/06/22 00:30:21;;;;;;;;;;;19.60;90.40;;;;;;5032522;28;19939;-52
2022/06/22 00:33:20;;;;;;;;;;;19.60;90.90;;;;;;5027910;28;19959;-51
2022/06/22 00:36:07;;;;;;;;;;;19.60;91.20;;;;;;5012569;28;20330;-53
2022/06/22 00:38:51;;;;;;;;;;;19.60;91.40;;;;;;5016323;28;19924;-50
2022/06/22 00:41:35;;;;;;;;;;;19.60;91.60;;;;;;5033071;28;19912;-46
2022/06/22 00:44:20;;;;;;;;;;;19.50;91.90;;;;;;5032767;28;20008;-52
2022/06/22 00:47:15;;;;;;;;;;;19.50;92.10;;;;;;5033270;28;19940;-50
2022/06/22 00:50:09;;;;;;;;;;;19.30;92.70;;;;;;5031279;28;20004;-50
2022/06/22 00:52:54;;;;;;;;;;;19.30;93.00;;;;;;5032667;28;19912;-48
2022/06/22 00:55:47;;;;;;;;;;;19.20;93.10;;;;;;5032680;28;20008;-47
2022/06/22 00:58:44;;;;;;;;;;;19.10;93.30;;;;;;5034126;28;20459;-49
2022/06/22 01:01:45;;;;;;;;;;;19.10;93.60;;;;;;5014168;28;19956;-47
2022/06/22 01:04:41;;;;;;;;;;;19.10;93.60;;;;;;5021927;28;19919;-48
2022/06/22 01:07:28;;;;;;;;;;;19.00;94.00;;;;;;5032758;28;19912;-51
2022/06/22 01:10:16;;;;;;;;;;;19.00;94.10;;;;;;5033479;28;19948;-47
2022/06/22 01:13:16;;;;;;;;;;;18.90;94.60;;;;;;5033582;28;19962;-48
2022/06/22 01:16:16;;;;;;;;;;;18.80;94.90;;;;;;5032103;28;20383;-50
2022/06/22 01:19:05;;;;;;;;;;;18.70;95.30;;;;;;5032960;28;19916;-50
2022/06/22 01:21:54;;;;;;;;;;;18.70;95.20;;;;;;5037620;28;19928;-48
2022/06/22 01:24:50;;;;;;;;;;;18.70;95.40;;;;;;5047102;28;20004;-47
2022/06/22 01:27:35;;;;;;;;;;;18.60;95.50;;;;;;5033253;28;20423;-52
2022/06/22 01:30:22;;;;;;;;;;;18.60;95.70;;;;;;5032566;28;19920;-50
2022/06/22 01:33:08;;;;;;;;;;;18.50;95.60;;;;;;5032952;28;19928;-51
2022/06/22 01:35:54;;;;;;;;;;;18.50;96.00;;;;;;5032807;28;20102;-51
2022/06/22 01:38:40;;;;;;;;;;;18.60;96.10;;;;;;5017242;28;19920;-50
2022/06/22 01:41:28;;;;;;;;;;;18.60;96.10;;;;;;5014160;28;20151;-46
2022/06/22 01:44:30;;;;;;;;;;;18.50;96.30;;;;;;5040212;28;19950;-51
2022/06/22 01:47:17;;;;;;;;;;;18.50;96.60;;;;;;5032697;28;20000;-53
2022/06/22 01:50:01;;;;;;;;;;;18.40;96.80;;;;;;5032294;28;19916;-51
2022/06/22 01:52:54;;;;;;;;;;;18.40;96.90;;;;;;5032998;28;19912;-47
2022/06/22 01:55:42;;;;;;;;;;;18.40;96.90;;;;;;5032197;28;20643;-46
2022/06/22 01:58:33;;;;;;;;;;;18.40;96.80;;;;;;5032740;28;19951;-49
2022/06/22 02:01:20;;;;;;;;;;;18.40;96.90;;;;;;5032316;28;19935;-52
2022/06/22 02:04:12;;;;;;;;;;;18.40;96.80;;;;;;5031679;28;20298;-47
2022/06/22 02:10:23;;;;;;;;;;;18.30;97.20;;;;;;5032460;28;19920;-51
2022/06/22 02:13:17;;;;;;;;;;;18.30;97.60;;;;;;5033560;28;19912;-53
2022/06/22 02:16:23;;;;;;;;;;;18.20;97.20;;;;;;5012924;28;19968;-53
2022/06/22 02:19:10;;;;;;;;;;;18.20;97.10;;;;;;5019613;28;19955;-54
2022/06/22 02:21:58;;;;;;;;;;;18.10;97.00;;;;;;5017343;28;19951;-51
2022/06/22 02:24:44;;;;;;;;;;;18.10;97.20;;;;;;5031504;28;20059;-51
2022/06/22 02:27:29;;;;;;;;;;;18.10;97.50;;;;;;5032411;28;19912;-51
2022/06/22 02:30:14;;;;;;;;;;;18.00;97.70;;;;;;5031881;28;19919;-48
2022/06/22 02:32:58;;;;;;;;;;;18.00;97.80;;;;;;5032865;28;19963;-52
2022/06/22 02:35:42;;;;;;;;;;;18.00;97.80;;;;;;5031756;28;20470;-54
2022/06/22 02:38:27;;;;;;;;;;;17.90;97.70;;;;;;5030730;28;19959;-47
2022/06/22 02:44:30;;;;;;;;;;;17.60;97.60;;;;;;5031443;28;20299;-47
2022/06/22 02:47:24;;;;;;;;;;;17.60;97.90;;;;;;5031255;28;19919;-51
2022/06/22 02:50:11;;;;;;;;;;;17.60;98.20;;;;;;5034763;28;20622;-46
2022/06/22 02:52:58;;;;;;;;;;;17.60;98.10;;;;;;5035843;28;19918;-48
2022/06/22 02:55:42;;;;;;;;;;;17.60;98.10;;;;;;5035765;28;19963;-46
2022/06/22 02:58:29;;;;;;;;;;;17.60;98.10;;;;;;5035696;28;19920;-51
2022/06/22 03:01:16;;;;;;;;;;;17.50;98.30;;;;;;5035752;28;20418;-49
2022/06/22 03:04:04;;;;;;;;;;;17.50;98.30;;;;;;5035091;28;19940;-51
2022/06/22 03:06:50;;;;;;;;;;;17.30;98.70;;;;;;5034775;28;19919;-50
2022/06/22 03:09:36;;;;;;;;;;;17.20;98.70;;;;;;5034674;28;19935;-47
2022/06/22 03:12:20;;;;;;;;;;;16.90;98.90;;;;;;5034055;28;19920;-53
2022/06/22 03:15:05;;;;;;;;;;;16.70;99.40;;;;;;5033786;28;20629;-53
2022/06/22 03:17:49;;;;;;;;;;;16.60;99.30;;;;;;5034265;28;20276;-50
2022/06/22 03:20:43;;;;;;;;;;;16.50;99.30;;;;;;5034904;28;19943;-50
2022/06/22 03:23:46;;;;;;;;;;;16.60;99.20;;;;;;5034108;28;20000;-47
2022/06/22 03:26:36;;;;;;;;;;;16.60;99.00;;;;;;5014513;28;19920;-47
2022/06/22 03:29:23;;;;;;;;;;;16.80;98.70;;;;;;5022312;28;19928;-50
2022/06/22 03:32:07;;;;;;;;;;;16.90;98.50;;;;;;5035501;28;19962;-51
2022/06/22 03:35:00;;;;;;;;;;;16.90;98.20;;;;;;5034646;28;19951;-50
2022/06/22 03:37:50;;;;;;;;;;;16.90;97.80;;;;;;5035011;28;19966;-53
2022/06/22 03:40:48;;;;;;;;;;;17.00;97.60;;;;;;5035259;28;19986;-49
2022/06/22 03:43:35;;;;;;;;;;;17.10;97.40;;;;;;5032074;28;19915;-52
2022/06/22 03:46:29;;;;;;;;;;;17.30;97.20;;;;;;5032903;28;20500;-51
2022/06/22 03:49:13;;;;;;;;;;;17.50;96.90;;;;;;5035312;28;19931;-49
2022/06/22 03:52:09;;;;;;;;;;;17.40;97.30;;;;;;5034253;28;19912;-48
2022/06/22 03:55:22;;;;;;;;;;;17.50;97.40;;;;;;5029300;28;19916;-47
2022/06/22 03:58:08;;;;;;;;;;;17.50;97.30;;;;;;5029574;28;19912;-49
2022/06/22 04:00:53;;;;;;;;;;;17.40;97.10;;;;;;5022307;28;19935;-50
2022/06/22 04:03:37;;;;;;;;;;;17.50;97.00;;;;;;5017670;28;19967;-48
2022/06/22 04:06:29;;;;;;;;;;;17.50;96.70;;;;;;5033892;28;19912;-52
2022/06/22 04:09:15;;;;;;;;;;;17.50;96.60;;;;;;5012794;28;19916;-47
2022/06/22 04:12:06;;;;;;;;;;;17.40;96.90;;;;;;5031332;28;19917;-47
2022/06/22 04:14:56;;;;;;;;;;;17.50;96.80;;;;;;5035223;28;20271;-50
2022/06/22 04:17:47;;;;;;;;;;;17.50;96.60;;;;;;5034302;28;19916;-52
2022/06/22 04:20:52;;;;;;;;;;;17.50;96.60;;;;;;5034400;28;19959;-51
2022/06/22 04:23:44;;;;;;;;;;;17.60;96.40;;;;;;5034261;28;19970;-51
2022/06/22 04:26:34;;;;;;;;;;;17.60;96.30;;;;;;5033378;28;19916;-52
2022/06/22 04:29:24;;;;;;;;;;;17.60;96.30;;;;;;5034351;28;19962;-48
2022/06/22 04:32:19;;;;;;;;;;;17.60;96.20;;;;;;5034195;28;19928;-48
2022/06/22 04:35:08;;;;;;;;;;;17.50;96.40;;;;;;5029376;28;19955;-51
2022/06/22 04:37:55;;;;;;;;;;;17.60;96.10;;;;;;5033869;28;20423;-47
2022/06/22 04:40:51;;;;;;;;;;;17.70;96.10;;;;;;5019101;28;19927;-52
2022/06/22 04:43:36;;;;;;;;;;;17.80;95.80;;;;;;5031124;28;20071;-52
2022/06/22 04:46:23;;;;;;;;;;;17.80;95.80;;;;;;5033336;28;19967;-50
2022/06/22 04:49:16;;;;;;;;;;;17.90;95.20;;;;;;5025798;28;19919;-47
2022/06/22 04:52:03;;;;;;;;;;;18.00;95.50;;;;;;5033926;28;19916;-49
2022/06/22 04:54:50;;;;;;;;;;;18.00;95.70;;;;;;5029887;28;20008;-48
2022/06/22 04:57:37;;;;;;;;;;;18.00;95.60;;;;;;5033839;28;20027;-52
2022/06/22 05:00:26;;;;;;;;;;;18.10;95.50;;;;;;5031181;28;20043;-51
2022/06/22 05:03:13;;;;;;;;;;;18.10;95.20;;;;;;5030721;28;20083;-52
2022/06/22 05:05:59;;;;;;;;;;;18.20;95.40;;;;;;5033424;28;19912;-49
2022/06/22 05:09:04;;;;;;;;;;;18.20;95.40;;;;;;5013565;28;19916;-49
2022/06/22 05:11:48;;;;;;;;;;;18.20;95.30;;;;;;5027563;28;20501;-47
2022/06/22 05:14:33;;;;;;;;;;;18.30;95.20;;;;;;5034445;28;20330;-53
2022/06/22 05:17:17;;;;;;;;;;;18.20;94.70;;;;;;5032086;28;19955;-53
2022/06/22 05:20:04;;;;;;;;;;;18.20;94.50;;;;;;5027384;28;20394;-50
2022/06/22 05:22:49;;;;;;;;;;;18.20;94.60;;;;;;5037514;28;19915;-50
2022/06/22 05:25:34;;;;;;;;;;;18.10;94.70;;;;;;5052900;28;19951;-50
2022/06/22 05:28:27;;;;;;;;;;;18.10;94.70;;;;;;5050442;28;19912;-53
2022/06/22 05:31:13;;;;;;;;;;;18.20;94.60;;;;;;5031909;28;19915;-50
2022/06/22 05:33:59;;;;;;;;;;;18.40;94.60;;;;;;5032813;28;19944;-55
2022/06/22 05:36:47;;;;;;;;;;;18.40;94.20;;;;;;5031966;28;19932;-53
2022/06/22 05:39:33;;;;;;;;;;;18.50;94.00;;;;;;5032548;28;19915;-50
2022/06/22 05:42:17;;;;;;;;;;;18.40;94.20;;;;;;5032443;28;19920;-47
2022/06/22 05:45:01;;;;;;;;;;;18.30;94.30;;;;;;5034585;28;20026;-50
2022/06/22 05:47:45;;;;;;;;;;;18.40;94.40;;;;;;5030336;28;20350;-54
2022/06/22 05:50:45;;;;;;;;;;;18.40;94.10;;;;;;5019999;28;19932;-54
2022/06/22 05:53:37;;;;;;;;;;;18.30;94.20;;;;;;5025440;28;19963;-51
2022/06/22 05:56:29;;;;;;;;;;;18.40;94.00;;;;;;5035715;28;19955;-53
2022/06/22 05:59:13;;;;;;;;;;;18.40;94.20;;;;;;5040149;28;19935;-54
2022/06/22 06:02:12;;;;;;;;;;;18.30;94.40;;;;;;5024316;28;19916;-48
2022/06/22 06:05:13;;;;;;;;;;;18.30;94.60;;;;;;5030471;28;19924;-49
2022/06/22 06:07:59;;;;;;;;;;;18.30;94.70;;;;;;5028663;28;19912;-49
2022/06/22 06:10:43;;;;;;;;;;;18.40;94.90;;;;;;5031635;28;19963;-49
2022/06/22 06:13:36;;;;;;;;;;;18.40;94.90;;;;;;5032549;28;19959;-51
2022/06/22 06:16:26;;;;;;;;;;;18.50;94.90;;;;;;5027433;28;19919;-49
2022/06/22 06:19:12;;;;;;;;;;;18.60;94.30;;;;;;5023976;28;19945;-50
2022/06/22 06:21:57;;;;;;;;;;;18.70;94.40;;;;;;5014399;28;20450;-46
2022/06/22 06:27:55;;;;;;;;;;;19.10;94.00;;;;;;5027154;28;19912;-49
2022/06/22 06:30:44;;;;;;;;;;;19.40;93.70;;;;;;5027154;28;20403;-46
2022/06/22 06:33:32;;;;;;;;;;;19.60;93.00;;;;;;5030359;28;20276;-54
2022/06/22 06:36:19;;;;;;;;;;;19.60;92.70;;;;;;5036127;28;19915;-49
2022/06/22 06:39:05;;;;;;;;;;;19.50;92.70;;;;;;5035265;28;19919;-55
2022/06/22 06:42:03;;;;;;;;;;;19.70;92.30;;;;;;5029225;28;19916;-56
2022/06/22 06:44:48;;;;;;;;;;;19.90;92.20;;;;;;5015655;28;19920;-53
2022/06/22 06:47:36;;;;;;;;;;;19.90;91.10;;;;;;5030485;28;20403;-53
2022/06/22 06:50:23;;;;;;;;;;;20.00;91.00;;;;;;5034100;28;20402;-51
2022/06/22 06:53:28;;;;;;;;;;;20.20;90.20;;;;;;5031550;28;19916;-49
2022/06/22 06:56:31;;;;;;;;;;;20.30;88.80;;;;;;5031794;28;20276;-50
2022/06/22 06:59:17;;;;;;;;;;;20.30;88.70;;;;;;5016066;28;19967;-51
2022/06/22 07:02:11;;;;;;;;;;;20.50;88.80;;;;;;5034160;28;19931;-49
2022/06/22 07:04:56;;;;;;;;;;;20.70;87.60;;;;;;5035512;28;19919;-53
2022/06/22 07:07:50;;;;;;;;;;;20.80;86.90;;;;;;5015995;28;19920;-52
2022/06/22 07:10:40;;;;;;;;;;;20.80;86.30;;;;;;5036875;28;19920;-55
2022/06/22 07:13:30;;;;;;;;;;;20.90;86.50;;;;;;5035775;28;20003;-54
2022/06/22 07:16:16;;;;;;;;;;;21.00;85.30;;;;;;5034449;28;19920;-48
2022/06/22 07:19:04;;;;;;;;;;;20.90;84.20;;;;;;5035532;28;19912;-46
2022/06/22 07:21:54;;;;;;;;;;;21.00;83.90;;;;;;5035067;28;19916;-51
2022/06/22 07:24:54;;;;;;;;;;;21.00;84.00;;;;;;5035497;28;20044;-52
2022/06/22 07:27:46;;;;;;;;;;;21.20;83.30;;;;;;5034390;28;19927;-47
2022/06/22 07:30:32;;;;;;;;;;;21.40;83.00;;;;;;5033416;28;19912;-50
2022/06/22 07:33:20;;;;;;;;;;;21.50;81.50;;;;;;5030468;28;19917;-49
2022/06/22 07:36:14;;;;;;;;;;;21.50;80.60;;;;;;5031744;28;19916;-47
2022/06/22 07:39:04;;;;;;;;;;;21.60;80.80;;;;;;5033597;28;20327;-53
2022/06/22 07:41:48;;;;;;;;;;;21.80;80.80;;;;;;5034078;28;19920;-54
2022/06/22 07:44:33;;;;;;;;;;;21.80;80.80;;;;;;5017288;28;20426;-51
2022/06/22 07:47:33;;;;;;;;;;;21.80;82.10;;;;;;5026086;28;19955;-50
2022/06/22 07:50:21;;;;;;;;;;;21.70;83.00;;;;;;5027713;28;19924;-51
2022/06/22 07:53:17;;;;;;;;;;;21.30;84.00;;;;;;5031058;28;20287;-49
2022/06/22 07:56:28;;;;;;;;;;;21.40;84.20;;;;;;5017767;28;19916;-53
2022/06/22 07:59:20;;;;;;;;;;;21.50;84.00;;;;;;5034021;28;20023;-48
2022/06/22 08:02:09;;;;;;;;;;;21.50;83.80;;;;;;5031211;28;19971;-51
2022/06/22 08:04:59;;;;;;;;;;;21.70;83.40;;;;;;5029793;28;19923;-53
2022/06/22 08:07:43;;;;;;;;;;;22.00;83.30;;;;;;5032084;28;20261;-51
2022/06/22 08:10:34;;;;;;;;;;;22.00;82.70;;;;;;5029521;28;19916;-51
2022/06/22 08:13:22;;;;;;;;;;;22.00;82.50;;;;;;5031263;28;20298;-46
2022/06/22 08:16:28;;;;;;;;;;;22.00;82.70;;;;;;5016272;28;19967;-49
2022/06/22 08:19:12;;;;;;;;;;;22.10;82.40;;;;;;5033462;28;20009;-47
2022/06/22 08:22:01;;;;;;;;;;;22.10;82.70;;;;;;5033957;28;20374;-49
2022/06/22 08:24:46;;;;;;;;;;;22.30;82.60;;;;;;5030800;28;19944;-52
2022/06/22 08:27:31;;;;;;;;;;;22.30;80.20;;;;;;5030023;28;19971;-48
2022/06/22 08:30:16;;;;;;;;;;;22.40;80.90;;;;;;5032996;28;20267;-52
2022/06/22 08:33:03;;;;;;;;;;;22.60;80.00;;;;;;5031337;28;19959;-49
2022/06/22 08:35:52;;;;;;;;;;;22.70;78.20;;;;;;5033893;28;19963;-46
2022/06/22 08:38:51;;;;;;;;;;;22.60;79.10;;;;;;5031328;28;19920;-51
2022/06/22 08:41:44;;;;;;;;;;;22.70;79.10;;;;;;5026613;28;19917;-47
2022/06/22 08:44:28;;;;;;;;;;;22.50;78.50;;;;;;5030177;28;19920;-52
2022/06/22 08:47:19;;;;;;;;;;;22.80;77.90;;;;;;5024882;28;19986;-54
2022/06/22 08:50:03;;;;;;;;;;;22.80;77.20;;;;;;5027397;28;20284;-49
2022/06/22 08:53:13;;;;;;;;;;;23.10;76.70;;;;;;5030109;28;20367;-49
2022/06/22 08:56:07;;;;;;;;;;;23.20;75.60;;;;;;5005177;28;20683;-51
2022/06/22 08:58:59;;;;;;;;;;;23.30;75.10;;;;;;5029668;28;19959;-50
2022/06/22 09:02:03;;;;;;;;;;;23.40;74.80;;;;;;5025226;28;19932;-50
2022/06/22 09:05:13;;;;;;;;;;;23.50;73.50;;;;;;5028806;28;19916;-49
2022/06/22 09:07:58;;;;;;;;;;;23.50;74.80;;;;;;5015673;28;19955;-49
2022/06/22 09:10:45;;;;;;;;;;;23.60;73.90;;;;;;5026036;28;19912;-51
2022/06/22 09:13:29;;;;;;;;;;;23.70;73.90;;;;;;5031589;28;19916;-52
2022/06/22 09:16:21;;;;;;;;;;;24.00;73.30;;;;;;5024359;28;19947;-54
2022/06/22 09:19:08;;;;;;;;;;;24.20;73.30;;;;;;5031105;28;20569;-53
2022/06/22 09:22:11;;;;;;;;;;;24.10;70.90;;;;;;5011275;28;19932;-53
2022/06/22 09:25:06;;;;;;;;;;;24.10;69.90;;;;;;5028857;28;19933;-55
2022/06/22 09:28:03;;;;;;;;;;;24.10;69.40;;;;;;5026686;28;19928;-53
2022/06/22 09:30:53;;;;;;;;;;;24.10;69.10;;;;;;5031933;28;20640;-50
2022/06/22 09:33:37;;;;;;;;;;;24.30;69.00;;;;;;5024928;28;20349;-52
2022/06/22 09:36:28;;;;;;;;;;;24.60;68.50;;;;;;5026653;28;19916;-48
2022/06/22 09:39:22;;;;;;;;;;;24.50;67.50;;;;;;5028272;28;20426;-50
2022/06/22 09:42:25;;;;;;;;;;;24.50;66.80;;;;;;5031645;28;19916;-50
2022/06/22 09:45:10;;;;;;;;;;;24.70;67.00;;;;;;5027827;28;19924;-55
2022/06/22 09:48:05;;;;;;;;;;;24.60;64.80;;;;;;5031490;28;19931;-51
2022/06/22 09:50:58;;;;;;;;;;;24.80;64.30;;;;;;5034999;28;19912;-51
2022/06/22 09:53:56;;;;;;;;;;;24.50;64.90;;;;;;5032277;28;19931;-61
2022/06/22 09:56:40;;;;;;;;;;;24.20;65.40;;;;;;5034033;28;19915;-48
2022/06/22 09:59:24;;;;;;;;;;;24.20;64.80;;;;;;5030086;28;19928;-53
2022/06/22 10:02:22;;;;;;;;;;;24.50;65.90;;;;;;5032396;28;19917;-47
2022/06/22 10:05:25;;;;;;;;;;;24.70;65.40;;;;;;5029069;28;19966;-50
2022/06/22 10:08:45;;;;;;;;;;;25.10;64.10;;;;;;5032015;28;20342;-48
2022/06/22 10:11:29;;;;;;;;;;;25.20;65.10;;;;;;4932826;29;19933;-51
2022/06/22 10:14:13;;;;;;;;;;;25.20;64.30;;;;;;5029826;28;19912;-52
2022/06/22 10:17:13;;;;;;;;;;;25.10;64.50;;;;;;5032596;28;19915;-52
2022/06/22 10:20:27;;;;;;;;;;;25.00;64.40;;;;;;5029590;28;20371;-51
2022/06/22 10:23:29;;;;;;;;;;;25.00;65.00;;;;;;5033177;28;20051;-51
2022/06/22 10:26:17;;;;;;;;;;;25.10;63.60;;;;;;5041354;28;20460;-56
2022/06/22 10:29:01;;;;;;;;;;;25.00;63.10;;;;;;5046835;28;19916;-51
2022/06/22 10:31:48;;;;;;;;;;;25.00;63.10;;;;;;5024451;28;20343;-49
2022/06/22 10:34:32;;;;;;;;;;;25.00;62.70;;;;;;5030885;28;20283;-51
2022/06/22 10:37:20;;;;;;;;;;;25.00;62.80;;;;;;5032244;28;19924;-53
2022/06/22 10:46:50;;;;;;;;;;;25.40;63.10;;;;;;5026198;28;19917;-51
2022/06/22 10:49:40;;;;;;;;;;;25.60;62.40;;;;;;5031618;28;19970;-48
2022/06/22 10:52:34;;;;;;;;;;;25.70;62.30;;;;;;5032772;28;20379;-48
2022/06/22 10:55:21;;;;;;;;;;;25.60;61.10;;;;;;5032108;28;19916;-48
2022/06/22 10:58:21;;;;;;;;;;;25.60;62.20;;;;;;5033146;28;19973;-51
2022/06/22 11:01:14;;;;;;;;;;;25.80;62.30;;;;;;5012694;28;19920;-51
2022/06/22 11:04:17;;;;;;;;;;;25.60;61.00;;;;;;5020636;28;19924;-46
2022/06/22 11:07:08;;;;;;;;;;;25.70;60.50;;;;;;5031358;28;19912;-53
2022/06/22 11:10:05;;;;;;;;;;;25.40;60.90;;;;;;5033017;28;19951;-50
2022/06/22 11:13:12;;;;;;;;;;;25.50;61.20;;;;;;5035165;28;20335;-51
2022/06/22 11:15:59;;;;;;;;;;;25.30;61.70;;;;;;4987295;28;19944;-52
2022/06/22 11:18:57;;;;;;;;;;;25.40;61.60;;;;;;5019128;28;19987;-50
2022/06/22 11:22:04;;;;;;;;;;;25.50;62.20;;;;;;5035306;28;20318;-49
2022/06/22 11:25:16;;;;;;;;;;;25.60;61.10;;;;;;5032079;28;19959;-51
2022/06/22 11:31:37;;;;;;;;;;;26.10;59.60;;;;;;5031557;28;19967;-50
2022/06/22 11:34:40;;;;;;;;;;;26.10;59.00;;;;;;5034753;28;19963;-51
2022/06/22 11:37:34;;;;;;;;;;;26.10;58.80;;;;;;5033379;28;19919;-48
2022/06/22 11:40:23;;;;;;;;;;;25.90;59.20;;;;;;5033990;28;19912;-48
2022/06/22 11:43:27;;;;;;;;;;;25.70;59.30;;;;;;5036417;28;19979;-48
2022/06/22 11:46:17;;;;;;;;;;;26.00;59.60;;;;;;5005026;28;20018;-50
2022/06/22 11:49:15;;;;;;;;;;;26.20;59.30;;;;;;5025604;28;20650;-54
2022/06/22 11:51:59;;;;;;;;;;;26.30;58.80;;;;;;5023545;28;19956;-49
2022/06/22 11:54:46;;;;;;;;;;;26.40;59.40;;;;;;5029517;28;19928;-49
2022/06/22 11:57:43;;;;;;;;;;;26.30;59.80;;;;;;5033230;28;19948;-48
2022/06/22 12:00:45;;;;;;;;;;;26.10;59.60;;;;;;5031270;28;20366;-49
2022/06/22 12:03:46;;;;;;;;;;;25.90;60.00;;;;;;5026328;28;19963;-46
2022/06/22 12:06:33;;;;;;;;;;;26.00;60.10;;;;;;5038316;28;20331;-49
2022/06/22 12:09:36;;;;;;;;;;;26.00;61.20;;;;;;5035452;28;19916;-49
2022/06/22 12:13:00;;;;;;;;;;;26.00;60.90;;;;;;5029018;28;19915;-47
2022/06/22 12:16:02;;;;;;;;;;;25.90;61.10;;;;;;4958088;28;20092;-52
2022/06/22 12:19:04;;;;;;;;;;;25.80;61.00;;;;;;4968719;28;19957;-50
2022/06/22 12:22:07;;;;;;;;;;;25.80;60.30;;;;;;5030138;28;19944;-52
2022/06/22 12:25:08;;;;;;;;;;;25.60;60.30;;;;;;5026231;28;19920;-53
2022/06/22 12:28:04;;;;;;;;;;;25.60;60.90;;;;;;5028994;28;20055;-51
2022/06/22 12:30:57;;;;;;;;;;;25.80;59.90;;;;;;5032909;28;19967;-46
2022/06/22 12:33:47;;;;;;;;;;;25.90;59.90;;;;;;5031974;28;19913;-57
2022/06/22 12:36:44;;;;;;;;;;;26.00;60.10;;;;;;5026847;28;19928;-50
2022/06/22 12:39:43;;;;;;;;;;;26.10;59.60;;;;;;5036126;28;20000;-49
2022/06/22 12:42:34;;;;;;;;;;;26.20;59.80;;;;;;5034877;28;19955;-50
2022/06/22 12:45:39;;;;;;;;;;;26.20;59.00;;;;;;5016803;28;19951;-46
2022/06/22 12:48:32;;;;;;;;;;;26.10;58.80;;;;;;5029717;28;19915;-47
2022/06/22 12:51:23;;;;;;;;;;;26.20;58.40;;;;;;5027432;28;20379;-49
2022/06/22 12:54:11;;;;;;;;;;;26.20;58.80;;;;;;5031372;28;20005;-48
2022/06/22 12:57:10;;;;;;;;;;;26.40;58.60;;;;;;5026827;28;19985;-55
2022/06/22 12:59:58;;;;;;;;;;;26.50;58.60;;;;;;5027868;28;19951;-50
2022/06/22 13:02:44;;;;;;;;;;;26.70;57.60;;;;;;5032472;28;19955;-51
2022/06/22 13:05:33;;;;;;;;;;;26.80;57.30;;;;;;5028619;28;20075;-51
2022/06/22 13:08:20;;;;;;;;;;;26.90;57.40;;;;;;5031005;28;19916;-51
2022/06/22 13:11:10;;;;;;;;;;;26.90;57.90;;;;;;5031090;28;20017;-48
2022/06/22 13:14:10;;;;;;;;;;;27.20;56.90;;;;;;5032549;28;19931;-52
2022/06/22 13:16:57;;;;;;;;;;;27.30;56.90;;;;;;5032570;28;19936;-49
2022/06/22 13:19:48;;;;;;;;;;;27.40;57.30;;;;;;5035451;28;19927;-50
2022/06/22 13:22:36;;;;;;;;;;;27.40;57.10;;;;;;5024315;28;19915;-54
2022/06/22 13:25:39;;;;;;;;;;;27.30;56.10;;;;;;5031721;28;19920;-51
2022/06/22 13:28:29;;;;;;;;;;;27.20;56.70;;;;;;5028046;28;19980;-52
2022/06/22 13:31:21;;;;;;;;;;;27.40;56.70;;;;;;5031305;28;20323;-54
2022/06/22 13:34:07;;;;;;;;;;;27.60;56.30;;;;;;5028682;28;20306;-54
2022/06/22 13:36:52;;;;;;;;;;;27.70;56.40;;;;;;5026519;28;19915;-53
2022/06/22 13:39:39;;;;;;;;;;;27.80;56.20;;;;;;5025364;28;19924;-48
2022/06/22 13:42:28;;;;;;;;;;;28.10;55.80;;;;;;5032568;28;19992;-50
2022/06/22 13:45:12;;;;;;;;;;;28.20;55.20;;;;;;5030347;28;20021;-48
2022/06/22 13:48:14;;;;;;;;;;;28.60;55.40;;;;;;5026985;28;19918;-51
2022/06/22 13:51:19;;;;;;;;;;;28.50;54.80;;;;;;5034846;28;19980;-51
2022/06/22 13:54:14;;;;;;;;;;;28.40;54.90;;;;;;5027847;28;19996;-51
2022/06/22 13:57:10;;;;;;;;;;;28.50;55.40;;;;;;5010918;28;20339;-47
2022/06/22 14:00:01;;;;;;;;;;;28.50;54.80;;;;;;5020453;28;19916;-51
2022/06/22 14:03:06;;;;;;;;;;;28.50;54.10;;;;;;5031255;28;19916;-51
2022/06/22 14:06:11;;;;;;;;;;;28.90;54.10;;;;;;5031448;28;19919;-54
2022/06/22 14:09:07;;;;;;;;;;;29.20;53.80;;;;;;5035011;28;19928;-49
2022/06/22 14:12:00;;;;;;;;;;;28.70;54.10;;;;;;5032616;28;20047;-53
2022/06/22 14:14:48;;;;;;;;;;;28.70;54.30;;;;;;5010627;28;19915;-54
2022/06/22 14:17:38;;;;;;;;;;;29.10;53.90;;;;;;5025390;28;19916;-51
2022/06/22 14:20:36;;;;;;;;;;;29.30;53.50;;;;;;5029643;28;19925;-54
2022/06/22 14:23:20;;;;;;;;;;;29.50;53.20;;;;;;5038067;28;19931;-56
2022/06/22 14:26:24;;;;;;;;;;;29.50;54.00;;;;;;5036668;28;19971;-56
2022/06/22 14:29:16;;;;;;;;;;;29.50;53.80;;;;;;5030180;28;20267;-54
2022/06/22 14:32:20;;;;;;;;;;;29.30;52.80;;;;;;5029536;28;19955;-52
2022/06/22 14:35:14;;;;;;;;;;;29.30;52.90;;;;;;5032062;28;19964;-54
2022/06/22 14:38:01;;;;;;;;;;;29.40;53.50;;;;;;5026864;28;19920;-52
2022/06/22 14:41:24;;;;;;;;;;;29.50;53.10;;;;;;5012487;28;19963;-51
2022/06/22 14:44:11;;;;;;;;;;;29.20;52.80;;;;;;4952175;28;19972;-52
2022/06/22 14:47:04;;;;;;;;;;;29.50;53.70;;;;;;4954567;29;19939;-48
2022/06/22 14:50:01;;;;;;;;;;;29.60;53.00;;;;;;5022638;28;20363;-53
2022/06/22 14:52:54;;;;;;;;;;;29.40;52.70;;;;;;5039281;28;19920;-51
2022/06/22 14:55:54;;;;;;;;;;;29.80;52.30;;;;;;5039669;28;19912;-51
2022/06/22 14:58:43;;;;;;;;;;;29.90;51.80;;;;;;5031359;28;19915;-53
2022/06/22 15:01:34;;;;;;;;;;;29.60;51.60;;;;;;5028297;28;20290;-51
2022/06/22 15:04:40;;;;;;;;;;;29.60;52.40;;;;;;5020769;28;19920;-50
2022/06/22 15:07:35;;;;;;;;;;;29.60;51.00;;;;;;5030795;28;20016;-53
2022/06/22 15:10:26;;;;;;;;;;;30.00;52.30;;;;;;5035184;28;20271;-53
2022/06/22 15:13:10;;;;;;;;;;;30.20;50.80;;;;;;5029976;28;20031;-53
2022/06/22 15:16:14;;;;;;;;;;;30.40;51.10;;;;;;5033966;28;19963;-53
2022/06/22 15:18:58;;;;;;;;;;;30.10;49.80;;;;;;5033204;28;20067;-53
2022/06/22 15:21:56;;;;;;;;;;;30.10;50.50;;;;;;5019548;28;19917;-49
2022/06/22 15:24:46;;;;;;;;;;;30.00;49.90;;;;;;5035296;28;19916;-49
2022/06/22 15:27:53;;;;;;;;;;;30.40;49.90;;;;;;5034840;28;20367;-51
2022/06/22 15:30:41;;;;;;;;;;;30.80;50.10;;;;;;5032434;28;19920;-53
2022/06/22 15:33:27;;;;;;;;;;;30.90;49.60;;;;;;5019279;28;20312;-49
2022/06/22 15:36:15;;;;;;;;;;;31.00;49.30;;;;;;5034620;28;20410;-48
2022/06/22 15:39:03;;;;;;;;;;;31.10;49.30;;;;;;5033498;28;20398;-51
2022/06/22 15:41:59;;;;;;;;;;;31.00;49.30;;;;;;5034705;28;20316;-53
2022/06/22 15:44:50;;;;;;;;;;;30.90;48.40;;;;;;5034808;28;19966;-51
2022/06/22 15:47:37;;;;;;;;;;;30.50;49.20;;;;;;5034373;28;19912;-55
2022/06/22 15:50:24;;;;;;;;;;;30.40;48.90;;;;;;5034869;28;19959;-51
2022/06/22 15:53:12;;;;;;;;;;;30.20;48.70;;;;;;5026616;28;19956;-50
2022/06/22 15:56:05;;;;;;;;;;;30.20;48.70;;;;;;5029783;28;19916;-52
2022/06/22 15:58:56;;;;;;;;;;;30.60;47.70;;;;;;5031269;28;19917;-51
2022/06/22 16:01:40;;;;;;;;;;;30.60;47.80;;;;;;5034653;28;19967;-46
2022/06/22 16:04:27;;;;;;;;;;;30.70;47.60;;;;;;5017471;28;19916;-51
2022/06/22 16:07:20;;;;;;;;;;;31.10;47.00;;;;;;5034885;28;19911;-53
2022/06/22 16:10:06;;;;;;;;;;;31.00;47.20;;;;;;5037709;28;19954;-51
2022/06/22 16:13:27;;;;;;;;;;;31.10;46.30;;;;;;5043325;28;20387;-46
2022/06/22 16:16:21;;;;;;;;;;;31.00;46.40;;;;;;5035044;28;19935;-48
2022/06/22 16:19:10;;;;;;;;;;;31.10;46.20;;;;;;5042799;28;19936;-48
2022/06/22 16:22:00;;;;;;;;;;;31.30;45.90;;;;;;5034726;28;20420;-47
2022/06/22 16:24:44;;;;;;;;;;;31.50;46.10;;;;;;5014930;28;19929;-50
2022/06/22 16:27:31;;;;;;;;;;;31.40;45.70;;;;;;5033345;28;19916;-47
2022/06/22 16:30:15;;;;;;;;;;;31.50;45.80;;;;;;5034520;28;20376;-51
2022/06/22 16:33:01;;;;;;;;;;;31.60;44.90;;;;;;5047519;28;19912;-50
2022/06/22 16:36:09;;;;;;;;;;;31.90;45.30;;;;;;5054652;28;19943;-51
2022/06/22 16:39:00;;;;;;;;;;;32.80;44.30;;;;;;5048886;28;19996;-51
2022/06/22 16:41:48;;;;;;;;;;;33.50;44.10;;;;;;5036358;28;20367;-48
2022/06/22 16:44:39;;;;;;;;;;;35.30;43.60;;;;;;5032799;28;19920;-51
2022/06/22 16:47:24;;;;;;;;;;;36.90;42.10;;;;;;5033693;28;20264;-52
2022/06/22 16:50:13;;;;;;;;;;;37.60;41.10;;;;;;5033868;28;19939;-49
2022/06/22 16:52:57;;;;;;;;;;;38.10;40.50;;;;;;5034520;28;20263;-48
2022/06/22 16:55:44;;;;;;;;;;;38.40;40.00;;;;;;5034403;28;19963;-50
2022/06/22 16:58:34;;;;;;;;;;;39.00;39.20;;;;;;5034299;28;20395;-54